createdAt,value
2019-05-11T00:01:59.673Z,5.10
2019-05-11T00:04:28.700Z,5.12
2019-05-11T00:06:57.746Z,5.03
2019-05-11T00:09:26.780Z,5.10
2019-05-11T00:11:55.819Z,5.35
2019-05-11T00:14:24.850Z,4.70
2019-05-11T00:16:53.961Z,5.28
2019-05-11T00:19:23.057Z,5.10
2019-05-11T00:21:52.092Z,5.35
2019-05-11T00:24:21.123Z,5.35
2019-05-11T00:26:50.231Z,5.30
2019-05-11T00:29:19.272Z,5.22
2019-05-11T00:31:48.322Z,5.60
2019-05-11T00:34:17.413Z,6.17
2019-05-11T00:36:46.451Z,5.10
2019-05-11T00:39:15.501Z,4.95
2019-05-11T00:41:44.628Z,5.33
2019-05-11T00:44:13.735Z,5.35
2019-05-11T00:46:42.780Z,5.60
2019-05-11T00:49:11.820Z,5.62
2019-05-11T00:51:40.932Z,5.42
2019-05-11T00:54:10.095Z,6.10
2019-05-11T00:56:39.160Z,4.55
2019-05-11T00:59:21.010Z,4.22
2019-05-11T01:01:39.035Z,5.75
2019-05-11T01:04:08.096Z,5.33
2019-05-11T01:06:37.182Z,4.20
2019-05-11T01:09:07.704Z,4.25
2019-05-11T01:11:36.753Z,6.30
2019-05-11T01:14:05.792Z,4.40
2019-05-11T01:16:34.911Z,4.37
2019-05-11T01:19:03.963Z,4.97
2019-05-11T01:21:33.003Z,4.53
2019-05-11T01:24:02.038Z,3.83
2019-05-11T01:26:31.135Z,3.77
2019-05-11T01:29:00.173Z,3.70
2019-05-11T01:31:29.272Z,3.75
2019-05-11T01:33:58.318Z,4.12
2019-05-11T01:36:27.345Z,4.58
2019-05-11T01:38:56.385Z,4.83
2019-05-11T01:41:25.431Z,5.90
2019-05-11T01:43:54.497Z,15.98
2019-05-11T01:46:23.560Z,6.10
2019-05-11T01:48:52.604Z,4.72
2019-05-11T01:51:21.644Z,5.55
2019-05-11T01:53:50.692Z,5.00
2019-05-11T01:56:19.729Z,4.58
2019-05-11T01:58:48.780Z,4.42
2019-05-11T02:01:17.804Z,4.17
2019-05-11T02:03:46.867Z,4.35
2019-05-11T02:06:15.908Z,4.90
2019-05-11T02:08:44.945Z,4.05
2019-05-11T02:11:16.183Z,6.83
2019-05-11T02:13:44.752Z,2.87
2019-05-11T02:16:13.853Z,6.08
2019-05-11T02:18:42.900Z,6.62
2019-05-11T02:21:11.938Z,5.90
2019-05-11T02:23:40.984Z,7.58
2019-05-11T02:26:10.120Z,8.75
2019-05-11T02:28:39.153Z,5.60
2019-05-11T02:31:08.270Z,5.47
2019-05-11T02:33:37.321Z,6.28
2019-05-11T02:36:06.448Z,12.18
2019-05-11T02:38:35.509Z,7.62
2019-05-11T02:41:04.608Z,6.35
2019-05-11T02:43:33.745Z,6.12
2019-05-11T02:46:02.986Z,6.75
2019-05-11T02:48:32.026Z,6.60
2019-05-11T02:51:01.256Z,7.15
2019-05-11T02:53:32.716Z,6.17
2019-05-11T02:56:01.844Z,6.90
2019-05-11T02:58:30.900Z,6.40
2019-05-11T03:01:00.011Z,5.83
2019-05-11T03:03:29.058Z,5.58
2019-05-11T03:05:58.120Z,6.10
2019-05-11T03:08:27.147Z,5.12
2019-05-11T03:10:56.203Z,5.05
2019-05-11T03:13:25.295Z,5.42
2019-05-11T03:15:54.338Z,5.10
2019-05-11T03:18:23.366Z,5.55
2019-05-11T03:20:52.402Z,5.60
2019-05-11T03:23:21.429Z,5.47
2019-05-11T03:25:50.466Z,6.00
2019-05-11T03:28:19.540Z,6.08
2019-05-11T03:30:48.573Z,6.00
2019-05-11T03:33:17.624Z,6.28
2019-05-11T03:35:46.856Z,5.60
2019-05-11T03:38:16.290Z,5.10
2019-05-11T03:40:45.385Z,4.80
2019-05-11T03:43:14.444Z,4.85
2019-05-11T03:45:43.535Z,6.20
2019-05-11T03:48:12.664Z,7.55
2019-05-11T03:50:41.760Z,5.67
2019-05-11T03:53:10.803Z,5.95
2019-05-11T03:55:39.834Z,5.67
2019-05-11T03:58:10.404Z,5.35
2019-05-11T04:00:39.438Z,5.33
2019-05-11T04:03:08.503Z,6.00
2019-05-11T04:05:37.692Z,6.37
2019-05-11T04:08:06.722Z,6.37
2019-05-11T04:10:35.965Z,7.53
2019-05-11T04:13:05.029Z,6.58
2019-05-11T04:15:34.062Z,5.97
2019-05-11T04:18:03.113Z,5.80
2019-05-11T04:20:32.209Z,5.67
2019-05-11T04:23:01.241Z,5.28
2019-05-11T04:25:30.333Z,5.92
2019-05-11T04:27:59.392Z,6.28
2019-05-11T04:30:28.443Z,6.17
2019-05-11T04:32:57.479Z,6.15
2019-05-11T04:35:26.593Z,6.03
2019-05-11T04:37:55.690Z,5.60
2019-05-11T04:40:24.741Z,6.30
2019-05-11T04:42:55.983Z,6.50
2019-05-11T04:45:24.677Z,6.62
2019-05-11T04:47:53.723Z,6.20
2019-05-11T04:50:22.761Z,7.03
2019-05-11T04:52:51.972Z,7.00
2019-05-11T04:55:21.324Z,7.90
2019-05-11T04:57:50.348Z,6.62
2019-05-11T05:00:19.549Z,6.37
2019-05-11T05:02:48.584Z,6.80
2019-05-11T05:05:17.646Z,7.00
2019-05-11T05:07:48.865Z,6.42
2019-05-11T05:10:20.036Z,6.97
2019-05-11T05:12:51.405Z,7.10
2019-05-11T05:15:18.982Z,6.42
2019-05-11T05:17:48.045Z,7.10
2019-05-11T05:20:17.254Z,6.72
2019-05-11T05:22:46.289Z,6.90
2019-05-11T05:25:15.435Z,7.30
2019-05-11T05:27:44.528Z,6.50
2019-05-11T05:30:13.739Z,5.75
2019-05-11T05:32:42.849Z,6.03
2019-05-11T05:35:11.965Z,6.55
2019-05-11T05:37:41.027Z,6.25
2019-05-11T05:40:10.103Z,6.80
2019-05-11T05:42:39.273Z,7.05
2019-05-11T05:45:08.621Z,6.70
2019-05-11T05:47:37.732Z,6.20
2019-05-11T05:50:07.433Z,6.67
2019-05-11T05:52:36.533Z,5.70
2019-05-11T05:55:06.727Z,5.72
2019-05-11T05:57:35.820Z,5.40
2019-05-11T06:00:05.696Z,5.72
2019-05-11T06:02:34.761Z,5.95
2019-05-11T06:05:05.707Z,5.22
2019-05-11T06:07:34.823Z,6.17
2019-05-11T06:10:06.358Z,6.05
2019-05-11T06:12:35.453Z,6.22
2019-05-11T06:15:07.637Z,5.72
2019-05-11T06:17:36.675Z,6.05
2019-05-11T06:20:06.696Z,4.25
2019-05-11T06:22:36.010Z,3.77
2019-05-11T06:25:06.181Z,3.75
2019-05-11T06:27:35.231Z,4.00
2019-05-11T06:30:07.123Z,3.55
2019-05-11T06:32:36.168Z,3.17
2019-05-11T06:35:09.253Z,3.08
2019-05-11T06:37:38.292Z,3.30
2019-05-11T06:40:07.868Z,2.77
2019-05-11T06:42:36.920Z,2.70
2019-05-11T06:45:07.286Z,2.67
2019-05-11T06:47:36.894Z,2.90
2019-05-11T06:50:06.367Z,2.85
2019-05-11T06:52:35.548Z,2.92
2019-05-11T06:55:05.416Z,2.75
2019-05-11T06:57:34.469Z,2.90
2019-05-11T07:00:04.251Z,2.92
2019-05-11T07:02:33.306Z,2.80
2019-05-11T07:05:02.345Z,2.70
2019-05-11T07:07:46.093Z,2.65
2019-05-11T07:10:02.161Z,2.47
2019-05-11T07:12:31.208Z,2.37
2019-05-11T07:15:00.255Z,2.92
2019-05-11T07:17:29.296Z,3.00
2019-05-11T07:19:58.331Z,2.52
2019-05-11T07:22:27.445Z,2.58
2019-05-11T07:24:56.552Z,2.27
2019-05-11T07:27:25.605Z,2.02
2019-05-11T07:29:54.657Z,2.10
2019-05-11T07:32:26.114Z,2.20
2019-05-11T07:34:54.730Z,1.80
2019-05-11T07:37:24.454Z,2.20
2019-05-11T07:39:53.678Z,2.65
2019-05-11T07:42:22.708Z,2.33
2019-05-11T07:44:51.751Z,2.02
2019-05-11T07:47:20.786Z,2.55
2019-05-11T07:49:49.828Z,2.17
2019-05-11T07:52:18.868Z,1.98
2019-05-11T07:54:52.625Z,2.35
2019-05-11T07:57:18.801Z,2.30
2019-05-11T08:00:08.153Z,1.70
2019-05-11T08:02:38.671Z,2.58
2019-05-11T08:05:24.731Z,1.80
2019-05-11T08:07:54.136Z,2.20
2019-05-11T08:10:23.188Z,1.98
2019-05-11T08:12:52.221Z,2.00
2019-05-11T08:15:21.257Z,2.10
2019-05-11T08:17:50.289Z,2.10
2019-05-11T08:20:19.409Z,1.82
2019-05-11T08:22:48.485Z,1.80
2019-05-11T08:27:58.952Z,2.20
2019-05-11T08:30:28.238Z,2.20
2019-05-11T08:32:58.238Z,2.08
2019-05-11T08:35:31.051Z,1.87
2019-05-11T08:37:58.539Z,1.92
2019-05-11T08:40:28.853Z,1.72
2019-05-11T08:42:58.407Z,1.92
2019-05-11T08:45:28.155Z,1.87
2019-05-11T08:47:58.071Z,1.85
2019-05-11T08:50:28.062Z,2.35
2019-05-11T08:52:58.138Z,1.55
2019-05-11T08:55:28.983Z,1.70
2019-05-11T08:57:58.660Z,2.02
2019-05-11T09:00:28.470Z,2.08
2019-05-11T09:02:58.381Z,2.05
2019-05-11T09:05:28.177Z,1.85
2019-05-11T09:07:57.904Z,1.95
2019-05-11T09:10:28.211Z,1.77
2019-05-11T09:12:59.064Z,1.80
2019-05-11T09:15:36.436Z,1.72
2019-05-11T09:17:59.201Z,1.82
2019-05-11T09:20:28.630Z,1.65
2019-05-11T09:22:58.915Z,1.92
2019-05-11T09:25:28.267Z,1.70
2019-05-11T09:27:58.687Z,1.90
2019-05-11T09:30:28.785Z,2.47
2019-05-11T09:32:58.285Z,2.37
2019-05-11T09:35:29.251Z,1.80
2019-05-11T09:37:58.794Z,1.90
2019-05-11T09:40:28.460Z,2.20
2019-05-11T09:42:58.538Z,1.92
2019-05-11T09:45:27.935Z,1.75
2019-05-11T09:47:58.725Z,1.67
2019-05-11T09:50:28.610Z,2.20
2019-05-11T09:52:58.212Z,1.80
2019-05-11T09:55:29.103Z,2.17
2019-05-11T09:57:58.198Z,1.85
2019-05-11T10:00:28.239Z,1.72
2019-05-11T10:02:57.802Z,1.90
2019-05-11T10:05:28.591Z,2.05
2019-05-11T10:07:58.951Z,1.95
2019-05-11T10:10:28.907Z,1.95
2019-05-11T10:12:59.044Z,1.60
2019-05-11T10:15:28.624Z,2.12
2019-05-11T10:17:58.833Z,2.00
2019-05-11T10:20:28.778Z,1.92
2019-05-11T10:22:58.113Z,2.00
2019-05-11T10:25:28.755Z,2.15
2019-05-11T10:27:58.152Z,1.90
2019-05-11T10:30:28.038Z,2.00
2019-05-11T10:32:57.854Z,2.05
2019-05-11T10:35:28.812Z,1.77
2019-05-11T10:37:58.402Z,2.72
2019-05-11T10:40:28.301Z,2.33
2019-05-11T10:42:58.954Z,2.58
2019-05-11T10:45:28.601Z,2.40
2019-05-11T10:48:00.964Z,3.08
2019-05-11T10:50:28.845Z,2.20
2019-05-11T10:52:59.055Z,2.08
2019-05-11T10:55:28.361Z,2.17
2019-05-11T10:57:58.061Z,2.10
2019-05-11T11:00:28.244Z,1.87
2019-05-11T11:02:58.159Z,1.82
2019-05-11T11:05:28.017Z,2.12
2019-05-11T11:07:58.899Z,2.02
2019-05-11T11:10:28.763Z,2.30
2019-05-11T11:12:58.405Z,1.82
2019-05-11T11:15:28.800Z,1.85
2019-05-11T11:17:58.136Z,2.00
2019-05-11T11:20:28.012Z,1.62
2019-05-11T11:22:58.393Z,1.72
2019-05-11T11:25:28.377Z,1.95
2019-05-11T11:27:57.899Z,2.02
2019-05-11T11:30:28.570Z,2.20
2019-05-11T11:32:58.716Z,2.12
2019-05-11T11:35:28.073Z,1.87
2019-05-11T11:37:58.501Z,1.98
2019-05-11T11:40:28.320Z,2.33
2019-05-11T11:42:58.076Z,2.40
2019-05-11T11:45:28.842Z,1.60
2019-05-11T11:47:58.196Z,2.00
2019-05-11T11:50:28.346Z,2.00
2019-05-11T11:52:57.880Z,1.85
2019-05-11T11:55:28.960Z,2.00
2019-05-11T11:57:58.829Z,1.95
2019-05-11T12:00:29.001Z,2.05
2019-05-11T12:02:58.232Z,2.08
2019-05-11T12:05:28.276Z,1.80
2019-05-11T12:07:58.109Z,2.22
2019-05-11T12:10:28.671Z,2.02
2019-05-11T12:12:58.196Z,2.00
2019-05-11T12:15:28.304Z,2.00
2019-05-11T12:17:58.723Z,2.22
2019-05-11T12:20:28.671Z,2.10
2019-05-11T12:22:58.204Z,1.67
2019-05-11T12:25:27.972Z,1.70
2019-05-11T12:27:57.857Z,1.87
2019-05-11T12:30:28.526Z,1.70
2019-05-11T12:32:57.851Z,1.87
2019-05-11T12:35:28.391Z,1.95
2019-05-11T12:37:58.746Z,2.00
2019-05-11T12:40:28.414Z,3.70
2019-05-11T12:42:59.061Z,2.40
2019-05-11T12:45:29.588Z,2.20
2019-05-11T12:47:58.848Z,2.35
2019-05-11T12:50:28.632Z,2.00
2019-05-11T12:52:58.866Z,2.27
2019-05-11T12:55:28.607Z,2.22
2019-05-11T12:57:58.131Z,2.00
2019-05-11T13:00:30.958Z,1.82
2019-05-11T13:02:58.689Z,1.90
2019-05-11T13:05:28.524Z,6.22
2019-05-11T13:07:58.653Z,2.02
2019-05-11T13:10:28.336Z,3.52
2019-05-11T13:12:58.158Z,1.70
2019-05-11T13:15:28.146Z,2.20
2019-05-11T13:17:58.152Z,2.05
2019-05-11T13:20:28.727Z,1.90
2019-05-11T13:22:58.709Z,2.52
2019-05-11T13:25:28.350Z,1.62
2019-05-11T13:27:58.083Z,1.77
2019-05-11T13:30:27.933Z,1.82
2019-05-11T13:32:57.964Z,1.47
2019-05-11T13:35:28.523Z,2.05
2019-05-11T13:37:58.492Z,2.30
2019-05-11T13:40:27.855Z,1.98
2019-05-11T13:42:58.221Z,1.60
2019-05-11T13:45:28.364Z,2.37
2019-05-11T13:47:59.313Z,2.22
2019-05-11T13:50:29.675Z,2.45
2019-05-11T13:52:59.041Z,2.10
2019-05-11T13:55:28.525Z,1.77
2019-05-11T13:57:57.938Z,1.70
2019-05-11T14:00:28.790Z,2.20
2019-05-11T14:02:59.755Z,2.12
2019-05-11T14:05:28.936Z,1.80
2019-05-11T14:07:58.703Z,2.10
2019-05-11T14:10:28.387Z,1.90
2019-05-11T14:12:58.245Z,1.90
2019-05-11T14:15:28.065Z,2.12
2019-05-11T14:20:28.939Z,1.90
2019-05-11T14:22:58.471Z,2.10
2019-05-11T14:25:28.085Z,1.70
2019-05-11T14:27:59.369Z,1.80
2019-05-11T14:30:28.246Z,1.87
2019-05-11T14:32:21.219Z,3.00
2019-05-11T14:32:58.111Z,1.70
2019-05-11T14:35:27.990Z,1.82
2019-05-11T14:37:58.825Z,1.75
2019-05-11T14:40:28.235Z,1.60
2019-05-11T14:42:58.055Z,1.90
2019-05-11T14:45:28.852Z,1.70
2019-05-11T14:47:58.365Z,1.57
2019-05-11T14:50:28.110Z,3.15
2019-05-11T14:52:58.064Z,1.57
2019-05-11T14:55:28.963Z,1.87
2019-05-11T14:57:58.246Z,1.45
2019-05-11T15:00:28.950Z,1.90
2019-05-11T15:02:58.536Z,1.57
2019-05-11T15:05:28.359Z,1.50
2019-05-11T15:07:58.147Z,1.47
2019-05-11T15:10:27.898Z,2.17
2019-05-11T15:12:59.033Z,2.08
2019-05-11T15:15:28.075Z,1.72
2019-05-11T15:17:58.239Z,2.12
2019-05-11T15:20:28.477Z,1.82
2019-05-11T15:22:58.190Z,1.70
2019-05-11T15:25:28.941Z,1.50
2019-05-11T15:27:58.524Z,1.87
2019-05-11T15:30:28.705Z,1.85
2019-05-11T15:32:58.593Z,2.02
2019-05-11T15:35:28.577Z,2.60
2019-05-11T15:37:58.234Z,1.60
2019-05-11T15:40:27.968Z,1.77
2019-05-11T15:42:58.591Z,2.00
2019-05-11T15:45:27.949Z,2.00
2019-05-11T15:47:58.974Z,2.20
2019-05-11T15:50:29.065Z,2.10
2019-05-11T15:52:58.718Z,1.60
2019-05-11T15:55:28.015Z,1.90
2019-05-11T15:57:57.146Z,1.98
2019-05-11T16:00:27.527Z,2.22
2019-05-11T16:02:57.811Z,2.00
2019-05-11T16:05:28.493Z,1.90
2019-05-11T16:07:58.853Z,1.60
2019-05-11T16:10:28.518Z,2.08
2019-05-11T16:12:58.554Z,2.27
2019-05-11T16:15:27.945Z,1.87
2019-05-11T16:17:57.768Z,1.80
2019-05-11T16:20:28.547Z,1.77
2019-05-11T16:22:57.888Z,1.80
2019-05-11T16:25:28.031Z,1.87
2019-05-11T16:27:57.238Z,1.90
2019-05-11T16:30:28.528Z,1.82
2019-05-11T16:32:58.065Z,2.25
2019-05-11T16:35:28.028Z,2.25
2019-05-11T16:37:59.247Z,2.05
2019-05-11T16:40:29.541Z,1.72
2019-05-11T16:42:58.921Z,1.82
2019-05-11T16:45:28.364Z,2.00
2019-05-11T16:47:58.945Z,1.75
2019-05-11T16:50:28.325Z,1.87
2019-05-11T16:52:58.526Z,2.08
2019-05-11T16:55:27.728Z,2.10
2019-05-11T16:57:58.800Z,2.00
2019-05-11T17:00:27.507Z,1.98
2019-05-11T17:02:57.732Z,1.52
2019-05-11T17:05:30.481Z,1.75
2019-05-11T17:07:58.762Z,1.62
2019-05-11T17:10:28.376Z,1.80
2019-05-11T17:12:58.108Z,2.10
2019-05-11T17:15:28.825Z,2.12
2019-05-11T17:17:58.772Z,1.80
2019-05-11T17:20:28.158Z,2.00
2019-05-11T17:22:57.206Z,2.12
2019-05-11T17:25:28.626Z,1.98
2019-05-11T17:27:58.776Z,2.05
2019-05-11T17:30:28.096Z,1.82
2019-05-11T17:32:59.177Z,1.90
2019-05-11T17:35:27.964Z,2.37
2019-05-11T17:37:57.013Z,1.80
2019-05-11T17:40:28.338Z,2.10
2019-05-11T17:42:58.532Z,2.10
2019-05-11T17:45:27.568Z,2.00
2019-05-11T17:47:58.301Z,2.08
2019-05-11T17:50:28.164Z,2.00
2019-05-11T17:52:57.548Z,2.20
2019-05-11T17:55:28.678Z,2.05
2019-05-11T17:57:58.275Z,1.77
2019-05-11T18:00:28.346Z,1.70
2019-05-11T18:02:58.360Z,1.60
2019-05-11T18:05:27.674Z,1.70
2019-05-11T18:07:58.018Z,1.77
2019-05-11T18:10:28.352Z,1.87
2019-05-11T18:12:57.873Z,1.98
2019-05-11T18:15:27.091Z,1.55
2019-05-11T18:17:58.629Z,1.80
2019-05-11T18:20:28.600Z,1.82
2019-05-11T18:22:57.841Z,1.85
2019-05-11T18:25:47.990Z,1.92
2019-05-11T18:28:18.169Z,1.77
2019-05-11T18:30:47.963Z,1.80
2019-05-11T18:33:18.841Z,2.15
2019-05-11T18:35:48.064Z,1.60
2019-05-11T18:38:17.819Z,1.80
2019-05-11T18:40:48.635Z,1.55
2019-05-11T18:43:18.870Z,1.82
2019-05-11T18:45:48.859Z,2.00
2019-05-11T18:48:18.572Z,2.20
2019-05-11T18:50:49.081Z,2.42
2019-05-11T18:53:18.807Z,1.82
2019-05-11T18:55:48.608Z,2.00
2019-05-11T18:58:18.645Z,2.10
2019-05-11T19:00:48.760Z,2.12
2019-05-11T19:03:19.330Z,2.02
2019-05-11T19:05:48.605Z,1.80
2019-05-11T19:08:18.932Z,1.87
2019-05-11T19:10:48.775Z,2.02
2019-05-11T19:13:18.169Z,1.98
2019-05-11T19:15:48.713Z,2.10
2019-05-11T19:18:18.033Z,2.37
2019-05-11T19:20:49.319Z,1.92
2019-05-11T19:23:19.200Z,2.35
2019-05-11T19:25:48.460Z,2.83
2019-05-11T19:28:18.647Z,2.22
2019-05-11T19:30:48.839Z,2.45
2019-05-11T19:33:18.978Z,1.98
2019-05-11T19:35:48.350Z,2.37
2019-05-11T19:38:18.963Z,2.35
2019-05-11T19:40:48.511Z,1.90
2019-05-11T19:43:18.620Z,2.20
2019-05-11T19:45:48.715Z,2.22
2019-05-11T19:48:17.901Z,1.82
2019-05-11T19:51:02.713Z,2.40
2019-05-11T19:53:18.766Z,2.00
2019-05-11T19:55:48.026Z,2.30
2019-05-11T19:58:19.248Z,2.00
2019-05-11T20:00:48.851Z,2.40
2019-05-11T20:03:18.375Z,1.95
2019-05-11T20:05:48.505Z,2.55
2019-05-11T20:08:18.416Z,2.27
2019-05-11T20:10:48.657Z,2.33
2019-05-11T20:13:18.371Z,2.12
2019-05-11T20:15:48.524Z,3.33
2019-05-11T20:18:18.345Z,2.12
2019-05-11T20:20:48.147Z,2.17
2019-05-11T20:23:17.346Z,2.62
2019-05-11T20:25:47.765Z,2.22
2019-05-11T20:28:18.174Z,2.05
2019-05-11T20:30:48.281Z,1.87
2019-05-11T20:33:18.915Z,2.10
2019-05-11T20:35:48.775Z,1.82
2019-05-11T20:38:18.772Z,1.87
2019-05-11T20:40:48.554Z,2.17
2019-05-11T20:43:18.562Z,2.10
2019-05-11T20:45:48.627Z,1.80
2019-05-11T20:48:18.508Z,2.17
2019-05-11T20:50:48.367Z,2.20
2019-05-11T20:53:18.206Z,2.50
2019-05-11T20:55:47.826Z,2.40
2019-05-11T20:58:18.809Z,2.25
2019-05-11T21:00:49.004Z,2.30
2019-05-11T21:03:18.353Z,2.25
2019-05-11T21:05:48.278Z,1.95
2019-05-11T21:08:17.857Z,2.20
2019-05-11T21:10:48.972Z,2.35
2019-05-11T21:13:18.056Z,2.10
2019-05-11T21:15:47.829Z,2.37
2019-05-11T21:18:18.441Z,2.08
2019-05-11T21:20:48.367Z,2.10
2019-05-11T21:23:18.565Z,2.62
2019-05-11T21:25:47.832Z,2.40
2019-05-11T21:28:16.856Z,2.60
2019-05-11T21:30:48.142Z,2.50
2019-05-11T21:33:17.931Z,2.50
2019-05-11T21:39:15.000Z,2.50
2019-05-11T21:41:44.101Z,2.40
2019-05-11T21:44:13.155Z,2.90
2019-05-11T21:46:42.273Z,2.40
2019-05-11T21:49:11.306Z,2.47
2019-05-11T21:51:40.343Z,2.60
2019-05-11T21:54:09.378Z,3.02
2019-05-11T21:56:40.878Z,2.50
2019-05-11T21:59:09.289Z,2.80
2019-05-11T22:01:38.640Z,2.52
2019-05-11T22:04:08.468Z,2.58
2019-05-11T22:06:39.205Z,2.52
2019-05-11T22:09:08.975Z,2.70
2019-05-11T22:11:38.269Z,3.00
2019-05-11T22:14:08.240Z,2.80
2019-05-11T22:16:38.656Z,2.47
2019-05-11T22:19:08.952Z,2.27
2019-05-11T22:21:38.156Z,2.25
2019-05-11T22:24:08.684Z,2.50
2019-05-11T22:26:38.046Z,2.40
2019-05-11T22:29:07.862Z,2.40
2019-05-11T22:31:38.257Z,2.47
2019-05-11T22:34:08.943Z,2.42
2019-05-11T22:36:38.703Z,2.47
2019-05-11T22:39:08.799Z,2.27
2019-05-11T22:41:39.636Z,2.70
2019-05-11T22:44:11.041Z,2.30
2019-05-11T22:46:39.459Z,2.20
2019-05-11T22:49:08.593Z,2.50
2019-05-11T22:51:37.814Z,2.80
2019-05-11T22:54:08.049Z,2.40
2019-05-11T22:56:38.028Z,2.45
2019-05-11T22:59:08.279Z,2.42
2019-05-11T23:01:38.066Z,2.42
2019-05-11T23:04:07.211Z,2.37
2019-05-11T23:06:40.254Z,3.20
2019-05-11T23:09:07.920Z,3.40
2019-05-11T23:11:37.947Z,2.83
2019-05-11T23:14:09.840Z,2.65
2019-05-11T23:16:37.873Z,2.67
2019-05-11T23:19:09.483Z,2.60
2019-05-11T23:21:38.801Z,2.60
2019-05-11T23:24:08.111Z,2.77
2019-05-11T23:26:38.634Z,2.92
2019-05-11T23:29:08.244Z,2.55
2019-05-11T23:31:38.329Z,2.75
2019-05-11T23:34:08.345Z,2.75
2019-05-11T23:36:38.254Z,2.60
2019-05-11T23:39:09.137Z,2.85
2019-05-11T23:41:38.320Z,2.47
2019-05-11T23:44:08.914Z,2.45
2019-05-11T23:46:38.613Z,2.62
2019-05-11T23:49:08.774Z,2.67
2019-05-11T23:51:38.747Z,2.80
2019-05-11T23:54:08.132Z,2.80
2019-05-11T23:56:38.662Z,2.87
2019-05-11T23:59:08.391Z,2.70
